sensor_id;sensor_type;location;lat;lon;timestamp;P1;durP1;ratioP1;P2;durP2;ratioP2
77350;SDS011;66420;50.246;14.320;2023-02-11T00:00:02;44.45;;;15.50;;
77350;SDS011;66420;50.246;14.320;2023-02-11T00:02:49;38.22;;;16.55;;
77350;SDS011;66420;50.246;14.320;2023-02-11T00:05:33;44.42;;;18.08;;
77350;SDS011;66420;50.246;14.320;2023-02-11T00:08:18;48.03;;;21.50;;
77350;SDS011;66420;50.246;14.320;2023-02-11T00:11:02;54.53;;;21.15;;
77350;SDS011;66420;50.246;14.320;2023-02-11T00:13:47;43.70;;;18.48;;
77350;SDS011;66420;50.246;14.320;2023-02-11T00:16:32;38.28;;;17.10;;
77350;SDS011;66420;50.246;14.320;2023-02-11T00:19:16;34.08;;;14.07;;
77350;SDS011;66420;50.246;14.320;2023-02-11T00:22:01;31.00;;;13.73;;
77350;SDS011;66420;50.246;14.320;2023-02-11T00:24:46;33.88;;;14.32;;
77350;SDS011;66420;50.246;14.320;2023-02-11T00:27:30;33.63;;;14.48;;
77350;SDS011;66420;50.246;14.320;2023-02-11T00:30:15;34.88;;;15.43;;
77350;SDS011;66420;50.246;14.320;2023-02-11T00:33:00;37.58;;;15.27;;
77350;SDS011;66420;50.246;14.320;2023-02-11T00:35:44;32.95;;;15.52;;
77350;SDS011;66420;50.246;14.320;2023-02-11T00:38:29;34.53;;;13.98;;
77350;SDS011;66420;50.246;14.320;2023-02-11T00:41:14;32.65;;;14.45;;
77350;SDS011;66420;50.246;14.320;2023-02-11T00:44:00;36.67;;;14.48;;
77350;SDS011;66420;50.246;14.320;2023-02-11T00:46:46;37.63;;;16.95;;
77350;SDS011;66420;50.246;14.320;2023-02-11T00:49:30;36.30;;;15.40;;
77350;SDS011;66420;50.246;14.320;2023-02-11T00:52:15;36.35;;;15.57;;
77350;SDS011;66420;50.246;14.320;2023-02-11T00:54:59;34.90;;;16.30;;
77350;SDS011;66420;50.246;14.320;2023-02-11T00:57:44;38.88;;;16.73;;
77350;SDS011;66420;50.246;14.320;2023-02-11T01:00:29;38.47;;;16.42;;
77350;SDS011;66420;50.246;14.320;2023-02-11T01:03:14;36.30;;;16.95;;
77350;SDS011;66420;50.246;14.320;2023-02-11T01:05:59;41.10;;;18.45;;
77350;SDS011;66420;50.246;14.320;2023-02-11T01:08:44;40.25;;;18.10;;
77350;SDS011;66420;50.246;14.320;2023-02-11T01:11:29;42.75;;;18.38;;
77350;SDS011;66420;50.246;14.320;2023-02-11T01:14:14;40.50;;;17.95;;
77350;SDS011;66420;50.246;14.320;2023-02-11T01:16:58;33.83;;;16.08;;
77350;SDS011;66420;50.246;14.320;2023-02-11T01:19:42;43.97;;;16.75;;
77350;SDS011;66420;50.246;14.320;2023-02-11T01:22:27;34.20;;;16.52;;
77350;SDS011;66420;50.246;14.320;2023-02-11T01:25:11;38.97;;;17.20;;
77350;SDS011;66420;50.246;14.320;2023-02-11T01:27:56;40.42;;;17.83;;
77350;SDS011;66420;50.246;14.320;2023-02-11T01:30:40;36.35;;;16.67;;
77350;SDS011;66420;50.246;14.320;2023-02-11T01:33:25;38.95;;;17.27;;
77350;SDS011;66420;50.246;14.320;2023-02-11T01:36:09;46.30;;;19.48;;
77350;SDS011;66420;50.246;14.320;2023-02-11T01:38:55;39.17;;;17.10;;
77350;SDS011;66420;50.246;14.320;2023-02-11T01:41:39;35.00;;;16.65;;
77350;SDS011;66420;50.246;14.320;2023-02-11T01:44:32;36.17;;;17.55;;
77350;SDS011;66420;50.246;14.320;2023-02-11T01:47:21;40.13;;;17.30;;
77350;SDS011;66420;50.246;14.320;2023-02-11T01:50:06;40.72;;;17.70;;
77350;SDS011;66420;50.246;14.320;2023-02-11T01:52:50;39.33;;;20.48;;
77350;SDS011;66420;50.246;14.320;2023-02-11T01:55:35;36.08;;;15.60;;
77350;SDS011;66420;50.246;14.320;2023-02-11T01:58:43;33.97;;;15.63;;
77350;SDS011;66420;50.246;14.320;2023-02-11T02:01:30;32.92;;;16.13;;
77350;SDS011;66420;50.246;14.320;2023-02-11T02:04:18;35.75;;;16.33;;
77350;SDS011;66420;50.246;14.320;2023-02-11T02:07:12;34.67;;;15.27;;
77350;SDS011;66420;50.246;14.320;2023-02-11T02:10:04;34.70;;;17.13;;
77350;SDS011;66420;50.246;14.320;2023-02-11T02:12:52;41.05;;;16.23;;
77350;SDS011;66420;50.246;14.320;2023-02-11T02:15:39;36.47;;;15.68;;
77350;SDS011;66420;50.246;14.320;2023-02-11T02:39:32;39.13;;;17.77;;
77350;SDS011;66420;50.246;14.320;2023-02-11T02:42:19;37.65;;;16.77;;
77350;SDS011;66420;50.246;14.320;2023-02-11T02:45:06;35.05;;;16.80;;
77350;SDS011;66420;50.246;14.320;2023-02-11T02:47:52;40.53;;;17.02;;
77350;SDS011;66420;50.246;14.320;2023-02-11T02:50:37;40.08;;;17.17;;
77350;SDS011;66420;50.246;14.320;2023-02-11T02:59:45;34.67;;;16.67;;
77350;SDS011;66420;50.246;14.320;2023-02-11T03:02:58;35.90;;;16.83;;
77350;SDS011;66420;50.246;14.320;2023-02-11T03:12:20;35.00;;;16.27;;
77350;SDS011;66420;50.246;14.320;2023-02-11T03:15:06;36.42;;;16.73;;
77350;SDS011;66420;50.246;14.320;2023-02-11T03:17:52;33.10;;;15.68;;
77350;SDS011;66420;50.246;14.320;2023-02-11T03:20:41;35.83;;;16.83;;
77350;SDS011;66420;50.246;14.320;2023-02-11T03:23:35;37.10;;;16.45;;
77350;SDS011;66420;50.246;14.320;2023-02-11T03:26:27;37.30;;;16.45;;
77350;SDS011;66420;50.246;14.320;2023-02-11T03:29:38;35.55;;;16.52;;
77350;SDS011;66420;50.246;14.320;2023-02-11T03:33:11;35.60;;;16.35;;
77350;SDS011;66420;50.246;14.320;2023-02-11T03:36:16;38.47;;;17.63;;
77350;SDS011;66420;50.246;14.320;2023-02-11T03:38:47;36.00;;;16.58;;
77350;SDS011;66420;50.246;14.320;2023-02-11T03:41:35;38.20;;;17.10;;
77350;SDS011;66420;50.246;14.320;2023-02-11T03:44:21;38.30;;;16.33;;
77350;SDS011;66420;50.246;14.320;2023-02-11T03:47:10;36.10;;;16.67;;
77350;SDS011;66420;50.246;14.320;2023-02-11T03:49:56;38.53;;;17.65;;
77350;SDS011;66420;50.246;14.320;2023-02-11T03:52:42;42.13;;;19.98;;
77350;SDS011;66420;50.246;14.320;2023-02-11T03:55:29;36.38;;;17.30;;
77350;SDS011;66420;50.246;14.320;2023-02-11T03:58:18;37.30;;;15.52;;
77350;SDS011;66420;50.246;14.320;2023-02-11T04:01:02;33.60;;;16.45;;
77350;SDS011;66420;50.246;14.320;2023-02-11T04:03:51;37.05;;;15.90;;
77350;SDS011;66420;50.246;14.320;2023-02-11T04:06:36;33.78;;;16.42;;
77350;SDS011;66420;50.246;14.320;2023-02-11T04:09:22;35.22;;;15.23;;
77350;SDS011;66420;50.246;14.320;2023-02-11T04:12:06;33.03;;;15.45;;
77350;SDS011;66420;50.246;14.320;2023-02-11T04:14:51;35.45;;;16.05;;
77350;SDS011;66420;50.246;14.320;2023-02-11T04:17:35;33.33;;;14.73;;
77350;SDS011;66420;50.246;14.320;2023-02-11T04:20:21;38.45;;;16.00;;
77350;SDS011;66420;50.246;14.320;2023-02-11T04:23:06;32.08;;;15.35;;
77350;SDS011;66420;50.246;14.320;2023-02-11T04:25:50;37.25;;;17.52;;
77350;SDS011;66420;50.246;14.320;2023-02-11T04:28:34;37.38;;;16.77;;
77350;SDS011;66420;50.246;14.320;2023-02-11T04:31:19;34.85;;;16.10;;
77350;SDS011;66420;50.246;14.320;2023-02-11T04:34:03;34.15;;;15.27;;
77350;SDS011;66420;50.246;14.320;2023-02-11T04:36:48;34.42;;;15.75;;
77350;SDS011;66420;50.246;14.320;2023-02-11T04:39:32;35.03;;;16.73;;
77350;SDS011;66420;50.246;14.320;2023-02-11T04:42:17;34.08;;;15.52;;
77350;SDS011;66420;50.246;14.320;2023-02-11T04:45:02;32.50;;;16.05;;
77350;SDS011;66420;50.246;14.320;2023-02-11T04:47:47;33.70;;;15.20;;
77350;SDS011;66420;50.246;14.320;2023-02-11T04:50:32;32.00;;;14.93;;
77350;SDS011;66420;50.246;14.320;2023-02-11T04:53:17;27.70;;;13.77;;
77350;SDS011;66420;50.246;14.320;2023-02-11T04:56:02;29.58;;;13.75;;
77350;SDS011;66420;50.246;14.320;2023-02-11T04:58:48;38.00;;;15.57;;
77350;SDS011;66420;50.246;14.320;2023-02-11T05:01:32;33.92;;;15.90;;
77350;SDS011;66420;50.246;14.320;2023-02-11T05:04:17;32.92;;;15.35;;
77350;SDS011;66420;50.246;14.320;2023-02-11T05:07:01;32.30;;;15.77;;
77350;SDS011;66420;50.246;14.320;2023-02-11T05:09:46;29.40;;;14.50;;
77350;SDS011;66420;50.246;14.320;2023-02-11T05:12:30;31.17;;;15.50;;
77350;SDS011;66420;50.246;14.320;2023-02-11T05:15:15;33.85;;;16.73;;
77350;SDS011;66420;50.246;14.320;2023-02-11T05:18:00;33.67;;;15.18;;
77350;SDS011;66420;50.246;14.320;2023-02-11T05:20:44;34.88;;;15.40;;
77350;SDS011;66420;50.246;14.320;2023-02-11T05:23:29;37.33;;;14.88;;
77350;SDS011;66420;50.246;14.320;2023-02-11T05:26:13;34.53;;;16.15;;
77350;SDS011;66420;50.246;14.320;2023-02-11T05:28:58;33.20;;;15.70;;
77350;SDS011;66420;50.246;14.320;2023-02-11T05:31:43;36.00;;;16.20;;
77350;SDS011;66420;50.246;14.320;2023-02-11T05:34:27;32.53;;;15.70;;
77350;SDS011;66420;50.246;14.320;2023-02-11T05:37:12;30.85;;;15.07;;
77350;SDS011;66420;50.246;14.320;2023-02-11T05:39:56;34.78;;;14.90;;
77350;SDS011;66420;50.246;14.320;2023-02-11T05:42:41;33.50;;;15.27;;
77350;SDS011;66420;50.246;14.320;2023-02-11T05:45:25;30.50;;;14.77;;
77350;SDS011;66420;50.246;14.320;2023-02-11T05:48:10;32.85;;;15.60;;
77350;SDS011;66420;50.246;14.320;2023-02-11T05:50:55;30.17;;;13.75;;
77350;SDS011;66420;50.246;14.320;2023-02-11T05:53:40;30.70;;;14.90;;
77350;SDS011;66420;50.246;14.320;2023-02-11T05:56:24;36.30;;;16.63;;
77350;SDS011;66420;50.246;14.320;2023-02-11T05:59:10;29.15;;;14.70;;
77350;SDS011;66420;50.246;14.320;2023-02-11T06:01:56;28.48;;;13.50;;
77350;SDS011;66420;50.246;14.320;2023-02-11T06:04:41;30.30;;;14.60;;
77350;SDS011;66420;50.246;14.320;2023-02-11T06:07:25;28.95;;;12.88;;
77350;SDS011;66420;50.246;14.320;2023-02-11T06:10:10;30.10;;;13.45;;
77350;SDS011;66420;50.246;14.320;2023-02-11T06:12:58;30.38;;;13.50;;
77350;SDS011;66420;50.246;14.320;2023-02-11T06:15:42;31.67;;;13.68;;
77350;SDS011;66420;50.246;14.320;2023-02-11T06:18:27;26.70;;;12.57;;
77350;SDS011;66420;50.246;14.320;2023-02-11T06:21:12;27.55;;;13.40;;
77350;SDS011;66420;50.246;14.320;2023-02-11T06:23:57;33.85;;;13.68;;
77350;SDS011;66420;50.246;14.320;2023-02-11T06:26:41;27.45;;;13.30;;
77350;SDS011;66420;50.246;14.320;2023-02-11T06:29:26;24.02;;;11.90;;
77350;SDS011;66420;50.246;14.320;2023-02-11T06:32:11;32.33;;;14.38;;
77350;SDS011;66420;50.246;14.320;2023-02-11T06:34:56;31.45;;;13.68;;
77350;SDS011;66420;50.246;14.320;2023-02-11T06:37:40;31.27;;;13.40;;
77350;SDS011;66420;50.246;14.320;2023-02-11T06:40:26;29.92;;;13.25;;
77350;SDS011;66420;50.246;14.320;2023-02-11T06:43:10;28.83;;;13.85;;
77350;SDS011;66420;50.246;14.320;2023-02-11T06:45:54;27.08;;;13.05;;
77350;SDS011;66420;50.246;14.320;2023-02-11T06:48:39;26.00;;;13.57;;
77350;SDS011;66420;50.246;14.320;2023-02-11T06:51:24;28.23;;;12.55;;
77350;SDS011;66420;50.246;14.320;2023-02-11T06:54:09;30.38;;;14.07;;
77350;SDS011;66420;50.246;14.320;2023-02-11T06:56:55;27.25;;;13.25;;
77350;SDS011;66420;50.246;14.320;2023-02-11T06:59:39;27.25;;;12.93;;
77350;SDS011;66420;50.246;14.320;2023-02-11T07:02:24;26.58;;;14.15;;
77350;SDS011;66420;50.246;14.320;2023-02-11T07:05:08;27.08;;;13.43;;
77350;SDS011;66420;50.246;14.320;2023-02-11T07:07:54;29.88;;;13.63;;
77350;SDS011;66420;50.246;14.320;2023-02-11T07:10:38;30.85;;;13.50;;
77350;SDS011;66420;50.246;14.320;2023-02-11T07:13:23;29.45;;;13.90;;
77350;SDS011;66420;50.246;14.320;2023-02-11T07:16:09;30.02;;;14.60;;
77350;SDS011;66420;50.246;14.320;2023-02-11T07:18:56;29.02;;;13.80;;
77350;SDS011;66420;50.246;14.320;2023-02-11T07:21:41;31.67;;;14.52;;
77350;SDS011;66420;50.246;14.320;2023-02-11T07:24:26;30.45;;;14.18;;
77350;SDS011;66420;50.246;14.320;2023-02-11T07:27:11;28.02;;;12.63;;
77350;SDS011;66420;50.246;14.320;2023-02-11T07:29:55;28.63;;;13.23;;
77350;SDS011;66420;50.246;14.320;2023-02-11T07:32:40;30.38;;;13.43;;
77350;SDS011;66420;50.246;14.320;2023-02-11T07:35:24;31.85;;;13.88;;
77350;SDS011;66420;50.246;14.320;2023-02-11T07:38:09;29.77;;;14.75;;
77350;SDS011;66420;50.246;14.320;2023-02-11T07:40:53;30.20;;;13.23;;
77350;SDS011;66420;50.246;14.320;2023-02-11T07:43:38;30.67;;;14.30;;
77350;SDS011;66420;50.246;14.320;2023-02-11T07:46:24;36.90;;;13.38;;
77350;SDS011;66420;50.246;14.320;2023-02-11T07:49:11;28.30;;;13.85;;
77350;SDS011;66420;50.246;14.320;2023-02-11T07:51:56;32.60;;;14.70;;
77350;SDS011;66420;50.246;14.320;2023-02-11T07:54:40;28.70;;;12.48;;
77350;SDS011;66420;50.246;14.320;2023-02-11T07:57:25;30.10;;;14.52;;
77350;SDS011;66420;50.246;14.320;2023-02-11T08:00:10;30.70;;;12.00;;
77350;SDS011;66420;50.246;14.320;2023-02-11T08:02:55;28.98;;;13.02;;
77350;SDS011;66420;50.246;14.320;2023-02-11T08:05:41;26.10;;;12.88;;
77350;SDS011;66420;50.246;14.320;2023-02-11T08:08:27;24.23;;;11.50;;
77350;SDS011;66420;50.246;14.320;2023-02-11T08:11:13;31.98;;;15.07;;
77350;SDS011;66420;50.246;14.320;2023-02-11T08:13:59;34.55;;;13.98;;
77350;SDS011;66420;50.246;14.320;2023-02-11T08:16:44;31.60;;;14.60;;
77350;SDS011;66420;50.246;14.320;2023-02-11T08:19:29;31.73;;;14.35;;
77350;SDS011;66420;50.246;14.320;2023-02-11T08:22:14;29.73;;;12.57;;
77350;SDS011;66420;50.246;14.320;2023-02-11T08:24:58;25.98;;;12.13;;
77350;SDS011;66420;50.246;14.320;2023-02-11T08:27:43;29.27;;;12.05;;
77350;SDS011;66420;50.246;14.320;2023-02-11T08:30:27;26.75;;;11.95;;
77350;SDS011;66420;50.246;14.320;2023-02-11T08:33:12;28.20;;;13.07;;
77350;SDS011;66420;50.246;14.320;2023-02-11T08:35:56;28.77;;;14.32;;
77350;SDS011;66420;50.246;14.320;2023-02-11T08:38:41;27.02;;;13.02;;
77350;SDS011;66420;50.246;14.320;2023-02-11T08:41:26;28.30;;;14.15;;
77350;SDS011;66420;50.246;14.320;2023-02-11T08:44:11;28.27;;;12.43;;
77350;SDS011;66420;50.246;14.320;2023-02-11T08:46:55;26.35;;;12.85;;
77350;SDS011;66420;50.246;14.320;2023-02-11T08:49:39;25.02;;;11.95;;
77350;SDS011;66420;50.246;14.320;2023-02-11T08:52:25;23.05;;;11.20;;
77350;SDS011;66420;50.246;14.320;2023-02-11T08:55:09;24.55;;;11.98;;
77350;SDS011;66420;50.246;14.320;2023-02-11T08:57:54;27.17;;;12.52;;
77350;SDS011;66420;50.246;14.320;2023-02-11T09:00:38;26.13;;;12.55;;
77350;SDS011;66420;50.246;14.320;2023-02-11T09:03:23;25.85;;;12.07;;
77350;SDS011;66420;50.246;14.320;2023-02-11T09:06:08;24.27;;;12.07;;
77350;SDS011;66420;50.246;14.320;2023-02-11T09:08:55;24.33;;;10.98;;
77350;SDS011;66420;50.246;14.320;2023-02-11T09:11:41;25.10;;;13.73;;
77350;SDS011;66420;50.246;14.320;2023-02-11T09:14:27;23.75;;;11.65;;
77350;SDS011;66420;50.246;14.320;2023-02-11T09:17:12;26.52;;;12.70;;
77350;SDS011;66420;50.246;14.320;2023-02-11T09:19:57;23.15;;;12.23;;
77350;SDS011;66420;50.246;14.320;2023-02-11T09:22:41;24.20;;;11.60;;
77350;SDS011;66420;50.246;14.320;2023-02-11T09:25:26;24.23;;;11.80;;
77350;SDS011;66420;50.246;14.320;2023-02-11T09:28:11;26.35;;;12.00;;
77350;SDS011;66420;50.246;14.320;2023-02-11T09:30:55;24.05;;;11.80;;
77350;SDS011;66420;50.246;14.320;2023-02-11T09:33:40;23.67;;;12.18;;
77350;SDS011;66420;50.246;14.320;2023-02-11T09:36:32;25.13;;;11.85;;
77350;SDS011;66420;50.246;14.320;2023-02-11T09:39:21;23.15;;;10.77;;
77350;SDS011;66420;50.246;14.320;2023-02-11T09:45:27;27.88;;;13.18;;
77350;SDS011;66420;50.246;14.320;2023-02-11T09:48:17;25.30;;;12.00;;
77350;SDS011;66420;50.246;14.320;2023-02-11T09:51:04;26.23;;;12.82;;
77350;SDS011;66420;50.246;14.320;2023-02-11T09:56:41;25.38;;;11.65;;
77350;SDS011;66420;50.246;14.320;2023-02-11T09:59:25;24.77;;;11.93;;
77350;SDS011;66420;50.246;14.320;2023-02-11T10:02:13;23.23;;;12.02;;
77350;SDS011;66420;50.246;14.320;2023-02-11T10:11:51;28.98;;;12.10;;
77350;SDS011;66420;50.246;14.320;2023-02-11T10:20:32;28.92;;;12.88;;
77350;SDS011;66420;50.246;14.320;2023-02-11T10:23:28;28.23;;;13.30;;
77350;SDS011;66420;50.246;14.320;2023-02-11T10:26:18;23.48;;;11.93;;
77350;SDS011;66420;50.246;14.320;2023-02-11T10:29:05;26.05;;;12.60;;
77350;SDS011;66420;50.246;14.320;2023-02-11T10:35:16;24.85;;;11.68;;
77350;SDS011;66420;50.246;14.320;2023-02-11T10:38:04;26.60;;;12.32;;
77350;SDS011;66420;50.246;14.320;2023-02-11T10:40:49;26.00;;;13.27;;
77350;SDS011;66420;50.246;14.320;2023-02-11T10:43:33;28.65;;;14.07;;
77350;SDS011;66420;50.246;14.320;2023-02-11T10:46:21;25.38;;;11.27;;
77350;SDS011;66420;50.246;14.320;2023-02-11T10:49:10;25.98;;;12.80;;
77350;SDS011;66420;50.246;14.320;2023-02-11T10:52:20;23.45;;;11.88;;
77350;SDS011;66420;50.246;14.320;2023-02-11T10:57:55;24.23;;;12.98;;
77350;SDS011;66420;50.246;14.320;2023-02-11T11:00:42;27.13;;;12.77;;
77350;SDS011;66420;50.246;14.320;2023-02-11T11:03:35;25.17;;;13.07;;
77350;SDS011;66420;50.246;14.320;2023-02-11T11:06:32;26.80;;;12.90;;
77350;SDS011;66420;50.246;14.320;2023-02-11T11:09:28;29.60;;;14.20;;
77350;SDS011;66420;50.246;14.320;2023-02-11T11:12:27;44.63;;;21.20;;
77350;SDS011;66420;50.246;14.320;2023-02-11T11:15:22;24.75;;;11.50;;
77350;SDS011;66420;50.246;14.320;2023-02-11T11:18:15;22.75;;;13.10;;
77350;SDS011;66420;50.246;14.320;2023-02-11T11:21:02;24.98;;;11.80;;
77350;SDS011;66420;50.246;14.320;2023-02-11T11:23:57;23.83;;;11.73;;
77350;SDS011;66420;50.246;14.320;2023-02-11T11:26:44;25.58;;;11.55;;
77350;SDS011;66420;50.246;14.320;2023-02-11T11:32:31;25.45;;;11.95;;
77350;SDS011;66420;50.246;14.320;2023-02-11T11:35:28;26.05;;;12.02;;
77350;SDS011;66420;50.246;14.320;2023-02-11T11:38:16;23.55;;;10.88;;
77350;SDS011;66420;50.246;14.320;2023-02-11T11:44:16;23.33;;;11.13;;
77350;SDS011;66420;50.246;14.320;2023-02-11T11:50:13;23.75;;;11.70;;
77350;SDS011;66420;50.246;14.320;2023-02-11T11:53:04;24.60;;;11.70;;
77350;SDS011;66420;50.246;14.320;2023-02-11T11:56:13;23.98;;;11.80;;
77350;SDS011;66420;50.246;14.320;2023-02-11T11:59:01;21.85;;;11.20;;
77350;SDS011;66420;50.246;14.320;2023-02-11T12:05:21;19.70;;;10.48;;
77350;SDS011;66420;50.246;14.320;2023-02-11T12:08:25;23.75;;;10.85;;
77350;SDS011;66420;50.246;14.320;2023-02-11T12:15:03;22.23;;;10.63;;
77350;SDS011;66420;50.246;14.320;2023-02-11T12:19:02;19.67;;;9.82;;
77350;SDS011;66420;50.246;14.320;2023-02-11T12:21:44;20.25;;;11.05;;
77350;SDS011;66420;50.246;14.320;2023-02-11T12:31:31;19.85;;;9.18;;
77350;SDS011;66420;50.246;14.320;2023-02-11T12:43:53;19.08;;;8.43;;
77350;SDS011;66420;50.246;14.320;2023-02-11T12:46:47;15.13;;;8.73;;
77350;SDS011;66420;50.246;14.320;2023-02-11T12:49:45;14.48;;;8.15;;
77350;SDS011;66420;50.246;14.320;2023-02-11T12:55:28;14.50;;;7.88;;
77350;SDS011;66420;50.246;14.320;2023-02-11T12:58:20;14.50;;;7.63;;
77350;SDS011;66420;50.246;14.320;2023-02-11T13:01:10;14.98;;;8.27;;
77350;SDS011;66420;50.246;14.320;2023-02-11T13:04:12;15.75;;;8.60;;
77350;SDS011;66420;50.246;14.320;2023-02-11T13:07:09;17.77;;;8.45;;
77350;SDS011;66420;50.246;14.320;2023-02-11T13:09:58;18.73;;;8.18;;
77350;SDS011;66420;50.246;14.320;2023-02-11T13:12:50;14.27;;;7.88;;
77350;SDS011;66420;50.246;14.320;2023-02-11T13:16:03;18.27;;;9.40;;
77350;SDS011;66420;50.246;14.320;2023-02-11T13:24:46;19.73;;;9.57;;
77350;SDS011;66420;50.246;14.320;2023-02-11T13:30:28;18.55;;;8.77;;
77350;SDS011;66420;50.246;14.320;2023-02-11T13:33:18;18.40;;;9.20;;
77350;SDS011;66420;50.246;14.320;2023-02-11T13:36:29;21.77;;;9.82;;
77350;SDS011;66420;50.246;14.320;2023-02-11T13:39:18;18.17;;;10.40;;
77350;SDS011;66420;50.246;14.320;2023-02-11T13:42:04;18.33;;;9.93;;
77350;SDS011;66420;50.246;14.320;2023-02-11T13:44:49;21.20;;;9.90;;
77350;SDS011;66420;50.246;14.320;2023-02-11T13:47:34;19.08;;;9.75;;
77350;SDS011;66420;50.246;14.320;2023-02-11T13:50:22;19.40;;;9.60;;
77350;SDS011;66420;50.246;14.320;2023-02-11T13:53:08;20.75;;;9.50;;
77350;SDS011;66420;50.246;14.320;2023-02-11T13:56:03;21.90;;;10.65;;
77350;SDS011;66420;50.246;14.320;2023-02-11T13:58:51;20.58;;;10.05;;
77350;SDS011;66420;50.246;14.320;2023-02-11T14:14:26;17.50;;;9.30;;
77350;SDS011;66420;50.246;14.320;2023-02-11T14:17:16;18.60;;;9.75;;
77350;SDS011;66420;50.246;14.320;2023-02-11T14:23:21;21.45;;;9.85;;
77350;SDS011;66420;50.246;14.320;2023-02-11T14:29:12;18.88;;;9.73;;
77350;SDS011;66420;50.246;14.320;2023-02-11T14:35:15;18.70;;;9.38;;
77350;SDS011;66420;50.246;14.320;2023-02-11T14:41:30;21.08;;;10.55;;
77350;SDS011;66420;50.246;14.320;2023-02-11T14:44:23;21.75;;;10.23;;
77350;SDS011;66420;50.246;14.320;2023-02-11T14:47:13;21.25;;;11.43;;
77350;SDS011;66420;50.246;14.320;2023-02-11T14:50:03;19.40;;;10.00;;
77350;SDS011;66420;50.246;14.320;2023-02-11T14:52:48;23.83;;;11.05;;
77350;SDS011;66420;50.246;14.320;2023-02-11T14:55:35;22.42;;;11.63;;
77350;SDS011;66420;50.246;14.320;2023-02-11T15:01:26;20.52;;;10.05;;
77350;SDS011;66420;50.246;14.320;2023-02-11T15:04:23;17.27;;;10.07;;
77350;SDS011;66420;50.246;14.320;2023-02-11T15:07:10;21.58;;;11.65;;
77350;SDS011;66420;50.246;14.320;2023-02-11T15:09:57;22.13;;;11.23;;
77350;SDS011;66420;50.246;14.320;2023-02-11T15:12:43;22.75;;;11.40;;
77350;SDS011;66420;50.246;14.320;2023-02-11T15:15:32;21.55;;;11.15;;
77350;SDS011;66420;50.246;14.320;2023-02-11T15:18:20;19.95;;;10.02;;
77350;SDS011;66420;50.246;14.320;2023-02-11T15:21:07;19.63;;;10.82;;
77350;SDS011;66420;50.246;14.320;2023-02-11T15:24:00;26.13;;;12.18;;
77350;SDS011;66420;50.246;14.320;2023-02-11T15:29:44;18.75;;;9.13;;
77350;SDS011;66420;50.246;14.320;2023-02-11T15:32:32;18.90;;;9.55;;
77350;SDS011;66420;50.246;14.320;2023-02-11T15:35:16;21.00;;;9.35;;
77350;SDS011;66420;50.246;14.320;2023-02-11T15:38:01;18.50;;;9.70;;
77350;SDS011;66420;50.246;14.320;2023-02-11T15:41:32;25.92;;;12.18;;
77350;SDS011;66420;50.246;14.320;2023-02-11T15:44:27;35.95;;;12.70;;
77350;SDS011;66420;50.246;14.320;2023-02-11T15:47:17;31.63;;;11.88;;
77350;SDS011;66420;50.246;14.320;2023-02-11T15:50:04;29.38;;;11.15;;
77350;SDS011;66420;50.246;14.320;2023-02-11T15:52:50;31.80;;;12.07;;
77350;SDS011;66420;50.246;14.320;2023-02-11T15:55:36;26.77;;;11.57;;
77350;SDS011;66420;50.246;14.320;2023-02-11T15:58:25;23.00;;;9.88;;
77350;SDS011;66420;50.246;14.320;2023-02-11T16:01:09;21.80;;;10.15;;
77350;SDS011;66420;50.246;14.320;2023-02-11T16:03:56;21.67;;;10.25;;
77350;SDS011;66420;50.246;14.320;2023-02-11T16:06:41;24.02;;;10.48;;
77350;SDS011;66420;50.246;14.320;2023-02-11T16:09:33;23.15;;;10.77;;
77350;SDS011;66420;50.246;14.320;2023-02-11T16:12:22;18.15;;;9.63;;
77350;SDS011;66420;50.246;14.320;2023-02-11T16:18:14;22.25;;;10.75;;
77350;SDS011;66420;50.246;14.320;2023-02-11T16:21:04;24.30;;;10.90;;
77350;SDS011;66420;50.246;14.320;2023-02-11T16:23:59;23.73;;;10.88;;
77350;SDS011;66420;50.246;14.320;2023-02-11T16:26:46;19.75;;;9.57;;
77350;SDS011;66420;50.246;14.320;2023-02-11T16:29:34;20.65;;;10.82;;
77350;SDS011;66420;50.246;14.320;2023-02-11T16:32:21;20.13;;;10.13;;
77350;SDS011;66420;50.246;14.320;2023-02-11T16:35:09;18.48;;;8.95;;
77350;SDS011;66420;50.246;14.320;2023-02-11T16:37:55;15.50;;;7.72;;
77350;SDS011;66420;50.246;14.320;2023-02-11T16:40:40;19.75;;;9.50;;
77350;SDS011;66420;50.246;14.320;2023-02-11T16:43:27;24.02;;;10.30;;
77350;SDS011;66420;50.246;14.320;2023-02-11T16:46:13;22.83;;;10.93;;
77350;SDS011;66420;50.246;14.320;2023-02-11T16:49:03;18.13;;;9.35;;
77350;SDS011;66420;50.246;14.320;2023-02-11T16:51:59;18.25;;;8.80;;
77350;SDS011;66420;50.246;14.320;2023-02-11T16:54:45;18.90;;;9.20;;
77350;SDS011;66420;50.246;14.320;2023-02-11T16:57:29;22.65;;;9.75;;
77350;SDS011;66420;50.246;14.320;2023-02-11T17:00:15;18.48;;;9.02;;
77350;SDS011;66420;50.246;14.320;2023-02-11T17:03:03;15.85;;;8.40;;
77350;SDS011;66420;50.246;14.320;2023-02-11T17:05:49;19.20;;;9.75;;
77350;SDS011;66420;50.246;14.320;2023-02-11T17:08:34;17.10;;;8.75;;
77350;SDS011;66420;50.246;14.320;2023-02-11T17:11:19;18.10;;;8.40;;
77350;SDS011;66420;50.246;14.320;2023-02-11T17:14:03;15.27;;;7.55;;
77350;SDS011;66420;50.246;14.320;2023-02-11T17:16:47;15.55;;;7.63;;
77350;SDS011;66420;50.246;14.320;2023-02-11T17:19:32;17.55;;;8.88;;
77350;SDS011;66420;50.246;14.320;2023-02-11T17:22:16;17.85;;;8.98;;
77350;SDS011;66420;50.246;14.320;2023-02-11T17:25:02;19.48;;;9.07;;
77350;SDS011;66420;50.246;14.320;2023-02-11T17:27:46;16.05;;;8.52;;
77350;SDS011;66420;50.246;14.320;2023-02-11T17:30:31;16.33;;;8.82;;
77350;SDS011;66420;50.246;14.320;2023-02-11T17:33:16;14.25;;;8.48;;
77350;SDS011;66420;50.246;14.320;2023-02-11T17:36:06;14.43;;;7.20;;
77350;SDS011;66420;50.246;14.320;2023-02-11T17:38:53;17.30;;;8.35;;
77350;SDS011;66420;50.246;14.320;2023-02-11T17:41:38;17.08;;;8.23;;
77350;SDS011;66420;50.246;14.320;2023-02-11T17:44:23;15.85;;;9.38;;
77350;SDS011;66420;50.246;14.320;2023-02-11T17:47:07;17.20;;;9.48;;
77350;SDS011;66420;50.246;14.320;2023-02-11T17:49:52;17.35;;;9.13;;
77350;SDS011;66420;50.246;14.320;2023-02-11T17:52:36;17.58;;;8.75;;
77350;SDS011;66420;50.246;14.320;2023-02-11T17:55:21;16.40;;;8.05;;
77350;SDS011;66420;50.246;14.320;2023-02-11T17:58:05;17.27;;;8.68;;
77350;SDS011;66420;50.246;14.320;2023-02-11T18:00:50;15.23;;;8.60;;
77350;SDS011;66420;50.246;14.320;2023-02-11T18:03:35;15.73;;;7.72;;
77350;SDS011;66420;50.246;14.320;2023-02-11T18:06:20;17.95;;;9.50;;
77350;SDS011;66420;50.246;14.320;2023-02-11T18:09:06;17.17;;;8.25;;
77350;SDS011;66420;50.246;14.320;2023-02-11T18:11:51;19.58;;;9.20;;
77350;SDS011;66420;50.246;14.320;2023-02-11T18:14:37;19.50;;;9.20;;
77350;SDS011;66420;50.246;14.320;2023-02-11T18:17:23;17.58;;;8.18;;
77350;SDS011;66420;50.246;14.320;2023-02-11T18:20:08;17.02;;;8.65;;
77350;SDS011;66420;50.246;14.320;2023-02-11T18:22:53;17.70;;;9.45;;
77350;SDS011;66420;50.246;14.320;2023-02-11T18:25:41;17.65;;;8.65;;